• Join FlightAware (Why Join?)
  • Login
  • US Flag 
04:22PM EDT


 

Airport Tracker/Info


-or-


 

Live Flight TrackerFlight Track Log ✈ AWE3202 ✈ 06-Jan-2014 ✈ KCHS - KDCA

Flight Track Log - Related Links

Times and Time Zones

All times are in EST time to prevent confusion due to time zone crossing. See the AWE3202 flight status page for this flight to view local times or setup timezone preferences in your user account.

Time Position Orientation Groundspeed Altitude Reporting Facility
EST Latitude Longitude Course Direction KTS MPH feet Rate Location/Type
09:48PM 33.1659 -79.9156 25° Northeast  Level Estimated
09:49PM 33.2477 -79.8563 31° Northeast  Level FlightAware Approximate
09:49PM 33.0894 -80.0836 29° Northeast 312 359 10,000  Level Jacksonville Center
09:50PM 33.3368 -79.8147 25° Northeast  Level Estimated
09:50PM 33.1756 -80.0189 32° Northeast 340 391 11,100  Level Jacksonville Center
09:51PM 33.4199 -79.7579 30° Northeast  Level FlightAware Approximate
09:51PM 33.2783 -79.9558 27° Northeast 373 429 13,400  Level Jacksonville Center
09:52PM 33.5091 -79.7163 24° Northeast  Level Estimated
09:52PM 33.3875 -79.8925 26° Northeast 404 465 16,200  Level Jacksonville Center
09:53PM 33.5928 -79.6607 29° Northeast  Level FlightAware Approximate
09:53PM 33.4967 -79.8267 27° Northeast 425 489 18,700  Level Jacksonville Center
09:54PM 33.6097 -79.7603 26° Northeast 436 502 21,200 2,280 Climbing Jacksonville Center
09:55PM 33.7269 -79.6911 26° Northeast 452 520 23,300 1,740 Climbing Jacksonville Center
09:56PM 33.8461 -79.6194 27° Northeast 464 534 24,700 1,500 Climbing Jacksonville Center
09:57PM 33.9733 -79.5419 27° Northeast 485 558 26,300 1,500 Climbing Jacksonville Center
09:58PM 34.1089 -79.4617 26° Northeast 511 588 27,700 1,020 Climbing Jacksonville Center
09:59PM 34.3156 -79.3383 26° Northeast 559 643 29,000 480 Climbing Washington Center
10:00PM 34.4581 -79.2542 26° Northeast 559 643 29,000  Level Washington Center
10:01PM 34.5942 -79.1669 28° Northeast 559 643 29,000  Level Washington Center
10:02PM 34.7322 -79.0844 26° Northeast 554 638 29,000  Level Washington Center
10:03PM 34.8722 -78.9994 26° Northeast 554 638 29,000  Level Washington Center
10:04PM 35.0103 -78.9139 27° Northeast 554 638 29,000  Level Washington Center
10:05PM 35.1483 -78.8283 27° Northeast 554 638 29,000  Level Washington Center
10:06PM 35.2883 -78.7422 27° Northeast 554 638 29,000  Level Washington Center
10:07PM 35.4389 -78.6486 27° Northeast 554 638 29,000  Level Washington Center
10:08PM 35.5789 -78.5594 27° Northeast 561 646 29,000  Level Washington Center
10:09PM 35.7208 -78.4728 26° Northeast 567 652 29,000  Level Washington Center
10:10PM 35.8628 -78.3831 27° Northeast 567 652 29,000 -660 Level Washington Center
10:11PM 35.9961 -78.2981 27° Northeast 555 639 27,700 -1,020 Descending Washington Center
10:12PM 36.1317 -78.2125 27° Northeast 545 627 27,000 -360 Descending Washington Center
10:13PM 36.2692 -78.1244 27° Northeast 545 627 27,000  Level Washington Center
10:14PM 36.4067 -78.0358 27° Northeast 545 627 27,000  Level Washington Center
10:15PM 36.5461 -77.9447 28° Northeast 550 633 27,000 -420 Level Washington Center
10:16PM 36.6814 -77.8581 27° Northeast 550 633 26,200 -1,140 Descending Washington Center
10:17PM 36.8144 -77.7711 28° Northeast 545 627 24,800 -1,440 Descending Washington Center
10:18PM 36.9472 -77.6839 28° Northeast 540 621 23,400 -1,440 Descending Washington Center
10:19PM 37.0781 -77.5989 27° Northeast 535 616 22,000 -720 Descending Washington Center
10:20PM 37.2089 -77.5136 27° Northeast 530 610 22,000  Level Washington Center
10:21PM 37.3417 -77.4256 28° Northeast 530 610 22,000  Level Washington Center
10:22PM 37.4722 -77.3397 28° Northeast 525 604 22,000 -1,020 Level Washington Center
10:23PM 37.6022 -77.2956 15° North 525 604 20,000 -2,100 Descending Washington Center
10:24PM 37.7403 -77.2672 North 514 592 17,800 -2,100 Descending Washington Center
10:25PM 37.8572 -77.2461 North 471 542 15,800 -2,040 Descending Washington Center
10:26PM 37.9681 -77.2247 North 424 488 13,900 -1,800 Descending Washington Center
10:27PM 38.0664 -77.2058 North 382 440 12,200 -1,680 Descending Washington Center
10:28PM 38.1625 -77.1869 North 356 410 10,500 -1,140 Descending Washington Center
10:29PM 38.2467 -77.1411 23° Northeast 334 384 10,000 -1,020 Descending Washington Center
10:30PM 38.3244 -77.0950 25° Northeast 319 367 8,500 -1,560 Descending Washington Center
10:31PM 38.3981 -77.0436 29° Northeast 288 331 6,900 -1,440 Descending Washington Center
10:32PM 38.4569 -77.0050 27° Northeast 253 291 5,700 -1,380 Descending Washington Center
10:33PM 38.5131 -77.0086 357° North 206 237 4,200 -900 Descending Washington Center
10:34PM 38.5672 -77.0150 355° North 195 224 4,000 -120 Descending Washington Center
10:35PM 38.6194 -77.0186 357° North 195 224 4,000 -120 Level Washington Center
10:36PM 38.6672 -77.0222 357° North 182 209 3,800 -600 Descending Washington Center
10:37PM 38.7167 -77.0167 North 153 176 2,700 -900 Descending Potomac TRACON
10:38PM 38.7500 -77.0333 339° North 121 139 1,900 -840 Descending Potomac TRACON
10:39PM 38.7833 -77.0333 360° North 113 130 1,100 -660 Descending Potomac TRACON
10:40PM 38.8167 -77.0333 360° North 119 137 600 -540 Descending Potomac TRACON